Terminal Aerodrome Forecast
Issued by NWS

Current Version | Previous Version | Text Only | Print | Product List | Glossary On
Versions: 1 2 3 4 5 6 7 8 9 10 11 12
000
FTUS44 KOUN 210520
TAFWWR
TAF
KWWR 210520Z 2106/2206 17010KT P6SM VCSH SCT007 BKN100
     FM210800 22007KT P6SM BKN007
     FM211200 36010KT P6SM BKN007
     FM211500 36012KT P6SM SCT035=

USA.gov is the U.S. government's official web portal to all federal, state and local government web resources and services.